createdAt,value
2023-02-11T00:01:20.099Z,33.50
2023-02-11T00:06:24.667Z,34.53
2023-02-11T00:11:27.673Z,41.45
2023-02-11T00:16:29.601Z,35.17
2023-02-11T00:21:31.275Z,38.45
2023-02-11T00:26:35.224Z,40.50
2023-02-11T00:31:36.864Z,36.08
2023-02-11T00:36:40.911Z,38.00
2023-02-11T00:41:42.581Z,37.47
2023-02-11T00:46:44.552Z,33.15
2023-02-11T00:51:46.472Z,35.72
2023-02-11T00:56:48.129Z,35.75
2023-02-11T01:01:49.744Z,36.45
2023-02-11T01:06:51.371Z,40.92
2023-02-11T01:11:53.229Z,27.55
2023-02-11T01:16:54.887Z,35.55
2023-02-11T01:21:56.592Z,25.80
2023-02-11T01:26:58.257Z,25.80
2023-02-11T01:32:01.155Z,25.98
2023-02-11T01:37:02.866Z,22.00
2023-02-11T01:42:04.622Z,23.48
2023-02-11T01:47:06.358Z,25.30
2023-02-11T01:52:25.483Z,22.67
2023-02-11T01:57:32.503Z,29.38
2023-02-11T02:02:46.545Z,30.83
2023-02-11T02:07:59.119Z,29.45
2023-02-11T02:13:00.705Z,29.60
2023-02-11T02:18:09.966Z,29.25
2023-02-11T02:23:31.063Z,27.08
2023-02-11T02:28:44.854Z,24.75
2023-02-11T02:34:09.534Z,29.77
2023-02-11T02:39:18.124Z,34.38
2023-02-11T02:44:20.635Z,30.02
2023-02-11T02:49:22.224Z,28.20
2023-02-11T02:54:41.956Z,33.78
2023-02-11T03:00:02.865Z,31.83
2023-02-11T03:05:12.653Z,36.83
2023-02-11T03:10:20.695Z,35.33
2023-02-11T03:15:24.858Z,33.05
2023-02-11T03:20:29.649Z,33.70
2023-02-11T03:25:38.981Z,34.55
2023-02-11T03:30:47.372Z,39.30
2023-02-11T03:35:55.597Z,32.55
2023-02-11T03:40:59.552Z,35.63
2023-02-11T03:46:03.015Z,32.20
2023-02-11T03:51:08.170Z,31.25
2023-02-11T03:56:15.363Z,35.75
2023-02-11T04:01:17.075Z,29.55
2023-02-11T04:06:18.658Z,33.22
2023-02-11T04:11:20.295Z,31.10
2023-02-11T04:16:22.188Z,29.35
2023-02-11T04:21:24.234Z,36.80
2023-02-11T04:26:25.735Z,31.40
2023-02-11T04:31:27.423Z,30.92
2023-02-11T04:36:29.086Z,36.22
2023-02-11T04:41:30.638Z,29.00
2023-02-11T04:46:32.344Z,28.25
2023-02-11T04:51:34.088Z,29.38
2023-02-11T04:56:35.626Z,30.65
2023-02-11T05:01:37.262Z,30.45
2023-02-11T05:06:39.395Z,30.90
2023-02-11T05:11:41.029Z,29.20
2023-02-11T05:16:42.638Z,22.60
2023-02-11T05:22:00.196Z,28.30
2023-02-11T05:27:03.271Z,29.77
2023-02-11T05:32:04.831Z,29.63
2023-02-11T05:37:06.514Z,29.48
2023-02-11T05:42:08.113Z,26.83
2023-02-11T05:47:09.665Z,31.05
2023-02-11T05:52:11.372Z,25.83
2023-02-11T05:57:13.605Z,27.20
2023-02-11T06:02:15.253Z,24.58
2023-02-11T06:07:17.046Z,26.17
2023-02-11T06:12:18.994Z,26.83
2023-02-11T06:17:20.649Z,38.00
2023-02-11T06:22:22.246Z,27.23
2023-02-11T06:27:24.016Z,29.58
2023-02-11T06:32:45.221Z,31.70
2023-02-11T06:37:47.340Z,31.48
2023-02-11T06:42:48.856Z,33.70
2023-02-11T06:47:51.875Z,35.22
2023-02-11T06:52:53.551Z,32.17
2023-02-11T06:57:55.186Z,33.28
2023-02-11T07:02:56.918Z,30.08
2023-02-11T07:07:58.599Z,27.88
2023-02-11T07:13:00.178Z,30.00
2023-02-11T07:18:01.884Z,29.67
2023-02-11T07:23:03.443Z,33.42
2023-02-11T07:28:05.281Z,29.08
2023-02-11T07:33:06.992Z,34.80
2023-02-11T07:38:08.534Z,36.10
2023-02-11T07:43:10.034Z,30.83
2023-02-11T07:48:11.563Z,33.05
2023-02-11T07:53:13.309Z,36.72
2023-02-11T07:58:14.848Z,32.45
2023-02-11T08:03:16.486Z,32.85
2023-02-11T08:08:18.273Z,39.55
2023-02-11T08:13:20.095Z,38.78
2023-02-11T08:18:21.646Z,38.75
2023-02-11T08:23:23.302Z,38.63
2023-02-11T08:28:25.044Z,43.30
2023-02-11T08:33:26.779Z,42.65
2023-02-11T08:38:28.381Z,42.67
2023-02-11T08:43:30.382Z,41.15
2023-02-11T08:48:32.045Z,36.28
2023-02-11T08:53:34.158Z,33.90
2023-02-11T08:58:35.775Z,37.83
2023-02-11T09:03:37.589Z,34.67
2023-02-11T09:08:42.176Z,31.15
2023-02-11T09:13:45.434Z,35.80
2023-02-11T09:18:47.857Z,32.95
2023-02-11T09:23:49.660Z,38.25
2023-02-11T09:28:51.861Z,37.78
2023-02-11T09:33:56.123Z,35.65
2023-02-11T09:39:00.627Z,33.42
2023-02-11T09:44:06.111Z,33.22
2023-02-11T09:49:15.725Z,38.80
2023-02-11T09:54:42.330Z,37.92
2023-02-11T09:59:43.959Z,30.40
2023-02-11T10:04:45.715Z,34.28
2023-02-11T10:10:00.945Z,28.75
2023-02-11T10:15:08.525Z,30.00
2023-02-11T10:20:32.967Z,30.02
2023-02-11T10:25:45.151Z,28.83
2023-02-11T10:31:11.008Z,27.85
2023-02-11T10:36:14.799Z,24.85
2023-02-11T10:41:21.326Z,30.70
2023-02-11T10:46:29.359Z,25.98
2023-02-11T10:51:33.152Z,24.98
2023-02-11T10:56:37.937Z,31.38
2023-02-11T11:01:57.212Z,30.33
2023-02-11T11:07:29.481Z,33.05
2023-02-11T11:12:33.148Z,31.30
2023-02-11T11:17:34.940Z,26.55
2023-02-11T11:22:36.676Z,31.70
2023-02-11T11:27:38.880Z,30.27
2023-02-11T11:32:42.201Z,30.60
2023-02-11T11:37:44.105Z,30.63
2023-02-11T11:42:45.879Z,25.63
2023-02-11T11:47:50.360Z,30.95
2023-02-11T11:53:05.598Z,29.73
2023-02-11T11:58:15.291Z,29.65
2023-02-11T12:03:42.015Z,27.85
2023-02-11T12:09:34.314Z,25.77
2023-02-11T12:14:41.696Z,30.77
2023-02-11T12:20:12.894Z,25.10
2023-02-11T12:25:17.166Z,29.17
2023-02-11T12:30:43.524Z,29.70
2023-02-11T12:35:50.979Z,28.00
2023-02-11T12:41:02.273Z,27.52
2023-02-11T12:46:34.082Z,26.38
2023-02-11T12:51:57.400Z,26.50
2023-02-11T12:57:20.637Z,29.88
2023-02-11T13:02:30.545Z,33.28
2023-02-11T13:07:39.860Z,32.88
2023-02-11T13:12:45.148Z,30.67
2023-02-11T13:17:54.798Z,31.48
2023-02-11T13:23:10.661Z,29.10
2023-02-11T13:28:27.402Z,28.40
2023-02-11T13:33:39.853Z,32.30
2023-02-11T13:38:51.232Z,31.52
2023-02-11T13:44:00.108Z,35.53
2023-02-11T13:49:01.897Z,32.28
2023-02-11T13:54:05.270Z,35.25
2023-02-11T13:59:26.792Z,38.88
2023-02-11T14:04:28.628Z,38.05
2023-02-11T14:09:34.778Z,30.33
2023-02-11T14:15:07.775Z,37.95
2023-02-11T14:20:36.230Z,35.83
2023-02-11T14:25:41.548Z,39.63
2023-02-11T14:30:51.573Z,34.95
2023-02-11T14:36:02.389Z,36.55
2023-02-11T14:41:24.636Z,41.47
2023-02-11T14:46:28.462Z,40.83
2023-02-11T14:51:38.460Z,37.53
2023-02-11T14:56:40.128Z,39.13
2023-02-11T15:01:42.327Z,36.50
2023-02-11T15:06:48.018Z,36.33
2023-02-11T15:16:56.440Z,38.40
2023-02-11T15:21:59.392Z,39.53
2023-02-11T15:27:13.841Z,41.45
2023-02-11T15:32:19.913Z,39.15
2023-02-11T15:37:24.674Z,30.00
2023-02-11T15:42:35.857Z,35.78
2023-02-11T15:47:49.385Z,33.63
2023-02-11T15:52:52.346Z,79.50
2023-02-11T15:57:57.371Z,39.88
2023-02-11T16:02:59.096Z,34.78
2023-02-11T16:08:12.640Z,37.63
2023-02-11T16:13:14.169Z,37.80
2023-02-11T16:18:39.882Z,86.95
2023-02-11T16:23:42.632Z,39.72
2023-02-11T16:28:44.262Z,38.88
2023-02-11T16:33:45.968Z,46.83
2023-02-11T16:38:47.613Z,42.85
2023-02-11T16:43:49.196Z,38.92
2023-02-11T16:48:51.339Z,40.10
2023-02-11T16:53:53.986Z,39.13
2023-02-11T16:58:55.563Z,43.78
2023-02-11T17:03:57.206Z,39.97
2023-02-11T17:08:58.895Z,41.47
2023-02-11T17:14:00.458Z,34.85
2023-02-11T17:19:02.032Z,42.63
2023-02-11T17:24:03.817Z,43.67
2023-02-11T17:29:10.128Z,40.67
2023-02-11T17:34:12.174Z,52.53
2023-02-11T17:39:17.436Z,41.42
2023-02-11T17:44:19.100Z,46.90
2023-02-11T17:49:20.626Z,45.67
2023-02-11T17:54:22.365Z,47.20
2023-02-11T17:59:23.916Z,46.88
2023-02-11T18:04:25.526Z,45.03
2023-02-11T18:09:27.159Z,43.42
2023-02-11T18:14:28.783Z,45.05
2023-02-11T18:19:30.373Z,42.85
2023-02-11T18:24:32.013Z,44.35
2023-02-11T18:29:33.867Z,48.08
2023-02-11T18:34:35.434Z,42.28
2023-02-11T18:39:37.318Z,52.42
2023-02-11T18:44:38.882Z,53.95
2023-02-11T18:49:40.517Z,49.63
2023-02-11T18:54:42.179Z,48.47
2023-02-11T18:59:43.720Z,55.78
2023-02-11T19:04:45.470Z,55.78
2023-02-11T19:09:47.088Z,50.20
2023-02-11T19:14:48.628Z,49.28
2023-02-11T19:19:50.326Z,50.70
2023-02-11T19:24:51.853Z,53.30
2023-02-11T19:29:53.439Z,55.00
2023-02-11T19:34:55.042Z,53.00
2023-02-11T19:39:56.612Z,58.03
2023-02-11T19:44:58.193Z,50.30
2023-02-11T19:49:59.851Z,57.15
2023-02-11T19:55:01.551Z,58.28
2023-02-11T20:00:04.975Z,62.67
2023-02-11T20:05:13.394Z,64.05
2023-02-11T20:10:15.140Z,71.28
2023-02-11T20:15:16.929Z,77.32
2023-02-11T20:20:18.580Z,70.38
2023-02-11T20:25:20.149Z,73.38
2023-02-11T20:30:21.768Z,57.53
2023-02-11T20:35:23.298Z,62.13
2023-02-11T20:40:24.879Z,54.13
2023-02-11T20:45:38.204Z,52.38
2023-02-11T20:50:40.281Z,51.80
2023-02-11T20:55:42.111Z,59.08
2023-02-11T21:00:43.759Z,51.05
2023-02-11T21:05:45.334Z,54.63
2023-02-11T21:10:48.079Z,57.92
2023-02-11T21:15:56.682Z,54.78
2023-02-11T21:21:00.939Z,50.03
2023-02-11T21:26:02.629Z,53.55
2023-02-11T21:31:05.036Z,53.92
2023-02-11T21:36:07.171Z,44.95
2023-02-11T21:41:09.187Z,49.55
2023-02-11T21:46:13.586Z,52.28
2023-02-11T21:51:19.091Z,48.13
2023-02-11T21:56:20.782Z,46.70
2023-02-11T22:01:25.652Z,45.70
2023-02-11T22:06:30.622Z,48.35
2023-02-11T22:11:32.307Z,42.35
2023-02-11T22:16:33.973Z,43.53
2023-02-11T22:21:35.548Z,45.22
2023-02-11T22:26:37.194Z,43.95
2023-02-11T22:31:39.050Z,48.05
2023-02-11T22:36:41.631Z,43.03
2023-02-11T22:41:44.866Z,48.25
2023-02-11T22:46:46.579Z,43.13
2023-02-11T22:51:48.601Z,39.22
2023-02-11T22:56:51.363Z,39.53
2023-02-11T23:01:53.174Z,42.53
2023-02-11T23:06:54.980Z,49.22
2023-02-11T23:11:56.929Z,40.20
2023-02-11T23:16:58.575Z,42.47
2023-02-11T23:22:00.374Z,46.67
2023-02-11T23:27:02.043Z,53.10
2023-02-11T23:32:03.789Z,51.10
2023-02-11T23:37:05.594Z,47.53
2023-02-11T23:42:07.185Z,51.65
2023-02-11T23:47:08.824Z,46.35
2023-02-11T23:52:10.526Z,51.25
2023-02-11T23:57:12.287Z,44.38
